Latest Weather Observations for Robe Airport

IDS60801

Issued at 5:35 pm CDT Saturday 1 November 2014 (issued every 30 minutes, with the page automatically refreshed every 10 minutes)

About weather observations | Map of weather stations | Latest weather observations for SA | Other Formats
Station Details ID: 026105 Name: ROBE AIRFIELD Lat: -37.18 Lon: 139.81 Height: 3.0 m
Data from the previous 72 hours. | See also: Recent months at Robe Airport
Date/Time
CDT
Temp
°C
App
Temp
°C
Dew
Point
Rel
Hum
%
Delta-T
°C
Wind Press
QNH
hPa
Press
MSL
hPa
Rain
since 9 am
mm
Dir
 
Spd
km/h
Gust
km/h
Spd
kts
Gust
kts
01/05:30pm 13.0 7.1 5.9 62 3.3 SW 26 39 14 21 1017.4 1017.4 0.0
01/05:00pm 14.0 7.5 4.9 54 4.2 WSW 28 46 15 25 1017.0 1017.0 0.0
01/04:30pm 13.4 7.8 5.3 58 3.8 WSW 24 43 13 23 1016.7 1016.7 0.0
01/04:00pm 14.4 8.4 5.5 55 4.2 WSW 26 39 14 21 1016.2 1016.2 0.0
01/03:30pm 11.7 4.7 7.0 73 2.2 SW 33 46 18 25 1016.3 1016.3 0.0
01/03:03pm 14.9 8.4 4.6 50 4.8 WSW 28 50 15 27 1015.9 1015.9 0.0
01/03:00pm 15.0 8.5 4.7 50 4.8 WSW 28 41 15 22 1015.9 1015.9 0.0
01/02:30pm 14.6 8.1 4.6 51 4.6 SW 28 46 15 25 1015.6 1015.6 0.0
01/02:29pm 14.6 8.0 4.3 50 4.8 SW 28 46 15 25 1015.6 1015.6 0.0
01/02:00pm 14.6 7.8 4.9 52 4.5 SW 30 46 16 25 1015.3 1015.3 0.0
01/01:30pm 14.4 7.0 5.0 53 4.4 SW 33 50 18 27 1015.0 1015.0 0.0
01/01:03pm 14.0 6.8 5.1 55 4.2 SW 32 52 17 28 1014.7 1014.7 0.0
01/01:00pm 14.3 7.2 5.4 55 4.2 SW 32 46 17 25 1014.7 1014.7 0.0
01/12:30pm 14.3 6.6 3.2 47 5.0 WSW 33 54 18 29 1014.2 1014.2 0.0
01/12:07pm 13.6 7.3 5.5 58 3.8 SW 28 48 15 26 1014.1 1014.1 0.0
01/12:00pm 14.7 7.4 4.4 50 4.8 WSW 32 48 17 26 1014.0 1014.0 0.0
01/11:32am 15.1 8.5 5.9 54 4.4 SW 30 50 16 27 1013.7 1013.7 0.0
01/11:30am 14.8 7.7 5.3 53 4.5 WSW 32 50 17 27 1013.7 1013.7 0.0
01/11:05am 13.8 6.5 4.4 53 4.3 SW 32 50 17 27 1013.5 1013.5 0.0
01/11:00am 13.9 6.9 3.9 51 4.5 SW 30 44 16 24 1013.4 1013.4 0.0
01/10:50am 13.4 6.3 5.3 58 3.8 SW 32 50 17 27 1013.3 1013.3 0.0
01/10:30am 12.8 5.6 5.7 62 3.3 SW 33 50 18 27 1013.1 1013.1 0.0
01/10:00am 13.9 6.3 3.9 51 4.5 SW 33 54 18 29 1012.4 1012.4 0.0
01/09:55am 13.7 6.3 3.8 51 4.5 WSW 32 54 17 29 1012.2 1012.2 0.0
01/09:30am 13.2 6.4 4.9 57 3.8 SW 30 46 16 25 1011.9 1011.9 0.0
01/09:02am 12.7 5.9 4.9 59 3.6 SW 30 50 16 27 1011.3 1011.3 0.0
01/09:00am 12.9 5.8 5.3 60 3.5 SW 32 50 17 27 1011.2 1011.2 3.6
01/08:30am 12.0 5.1 4.7 61 3.3 WSW 30 48 16 26 1010.5 1010.5 3.6
01/08:12am 11.6 5.5 6.5 71 2.4 SW 28 46 15 25 1010.1 1010.1 3.6
01/08:00am 11.1 5.4 6.8 75 2.0 SW 26 41 14 22 1009.7 1009.7 3.4
01/07:48am 12.7 6.2 6.3 65 3.0 SW 30 52 16 28 1009.4 1009.4 3.4
01/07:30am 12.5 5.4 5.7 63 3.2 SW 32 48 17 26 1009.1 1009.1 3.4
01/07:00am 12.6 5.4 5.1 60 3.5 SW 32 56 17 30 1008.3 1008.3 3.4
01/06:30am 11.6 5.7 7.5 76 2.0 SW 28 48 15 26 1007.6 1007.6 3.4
01/06:00am 11.6 5.7 7.7 77 1.9 SW 28 48 15 26 1007.1 1007.1 3.4
01/05:52am 11.7 5.8 7.4 75 2.1 SW 28 48 15 26 1006.9 1006.9 3.4
01/05:30am 12.0 6.9 7.5 74 2.2 SW 24 43 13 23 1006.4 1006.4 3.2
01/05:23am 11.8 5.9 7.5 75 2.1 WSW 28 48 15 26 1006.3 1006.3 3.2
01/05:00am 12.5 8.0 6.1 65 3.0 WSW 19 43 10 23 1005.8 1005.8 3.2
01/04:30am 12.6 6.2 5.3 61 3.4 WSW 28 48 15 26 1005.4 1005.4 3.2
01/04:27am 12.7 6.3 5.4 61 3.4 WSW 28 48 15 26 1005.4 1005.4 3.2
01/04:00am 12.3 6.6 6.8 69 2.6 WSW 26 48 14 26 1005.2 1005.2 3.2
01/03:51am 12.5 6.4 6.8 68 2.7 SW 28 48 15 26 1005.0 1005.0 3.2
01/03:30am 12.7 7.1 8.6 76 2.1 SW 28 46 15 25 1004.6 1004.6 3.2
01/03:18am 12.5 7.0 9.3 81 1.6 SW 28 56 15 30 1004.4 1004.4 3.2
01/03:00am 11.7 6.8 9.8 88 1.0 SW 26 44 14 24 1004.2 1004.2 3.2
01/02:30am 12.0 6.5 10.4 90 0.8 SW 30 54 16 29 1004.0 1004.0 3.2
01/02:26am 12.3 6.6 11.0 92 0.7 SW 32 54 17 29 1003.9 1003.9 3.2
01/02:00am 12.9 9.8 11.5 91 0.7 WSW 19 30 10 16 1003.7 1003.7 3.2
01/01:30am 13.6 11.2 12.7 94 0.5 WSW 17 30 9 16 1003.4 1003.4 3.0
01/01:00am 13.6 11.6 12.8 95 0.4 WNW 15 20 8 11 1003.5 1003.5 3.0
01/12:30am 13.3 11.2 12.5 95 0.4 W 15 22 8 12 1003.7 1003.7 3.0
01/12:00am 13.0 11.1 11.9 93 0.6 W 13 19 7 10 1003.6 1003.6 3.0
 
Date/Time
CDT
Temp
°C
App
Temp
°C
Dew
Point
Rel
Hum
%
Delta-T
°C
Wind Press
QNH
hPa
Press
MSL
hPa
Rain
since 9 am
mm
Dir
 
Spd
km/h
Gust
km/h
Spd
kts
Gust
kts
31/11:30pm 12.9 11.3 11.6 92 0.7 W 11 19 6 10 1003.8 1003.8 3.0
31/11:00pm 12.9 12.3 11.6 92 0.7 W 6 11 3 6 1003.6 1003.6 3.0
31/10:30pm 12.9 12.9 11.1 89 1.0 WSW 2 7 1 4 1002.8 1002.8 2.4
31/10:00pm 13.8 12.7 11.8 88 1.1 SW 9 15 5 8 1003.3 1003.3 0.6
31/09:30pm 14.1 11.0 11.6 85 1.3 SW 19 30 10 16 1003.6 1003.6 0.0
31/09:00pm 15.0 11.9 11.6 80 1.8 WSW 19 33 10 18 1003.6 1003.6 0.0
31/08:30pm 14.8 12.1 11.8 82 1.6 SW 17 26 9 14 1002.1 1002.1 0.0
31/08:00pm 15.1 11.6 12.2 83 1.6 SW 22 37 12 20 1001.9 1001.9 0.0
31/07:30pm 15.7 12.8 13.0 84 1.5 SW 20 33 11 18 1001.7 1001.7 0.0
31/07:00pm 16.1 12.7 13.8 86 1.3 WSW 24 39 13 21 1001.0 1001.0 0.0
31/06:30pm 16.4 13.5 13.9 85 1.4 WSW 22 35 12 19 1000.1 1000.1 0.0
31/06:00pm 16.9 13.2 14.0 83 1.7 WSW 26 41 14 22 999.6 999.6 0.0
31/05:30pm 18.1 14.3 13.6 75 2.6 WSW 26 41 14 22 999.4 999.4 0.0
31/05:00pm 19.6 16.7 12.8 65 3.8 W 20 33 11 18 999.1 999.1 0.0
31/04:30pm 22.7 18.4 10.8 47 6.6 W 24 44 13 24 999.2 999.2 0.0
31/04:00pm 24.9 20.6 10.8 41 7.9 W 24 37 13 20 999.2 999.2 0.0
31/03:30pm 25.3 21.1 11.1 41 8.0 WNW 24 39 13 21 999.5 999.5 0.0
31/03:00pm 25.2 21.3 12.1 44 7.5 NW 24 32 13 17 999.5 999.5 0.0
31/02:30pm 26.9 21.6 9.7 34 9.6 NW 28 43 15 23 1000.0 1000.0 0.0
31/02:00pm 28.8 22.9 7.4 26 11.5 NNW 28 39 15 21 1000.4 1000.4 0.0
31/01:30pm 29.9 24.0 8.9 27 11.7 NNW 30 43 16 23 1000.6 1000.6 0.0
31/01:00pm 28.7 21.8 7.3 26 11.5 NNW 33 46 18 25 1001.1 1001.1 0.0
31/12:30pm 28.5 19.4 6.0 24 11.9 N 43 56 23 30 1001.5 1001.5 0.0
31/12:00pm 28.5 19.7 5.4 23 12.0 N 41 57 22 31 1001.9 1001.9 0.0
31/11:56am 28.7 19.9 5.5 23 12.1 N 41 61 22 33 1001.9 1001.9 0.0
31/11:30am 29.2 21.6 6.0 23 12.3 N 35 52 19 28 1002.3 1002.3 0.0
31/11:00am 28.8 21.2 5.6 23 12.1 N 35 52 19 28 1002.7 1002.7 0.0
31/10:30am 28.4 19.9 5.3 23 12.0 N 39 52 21 28 1003.1 1003.1 0.0
31/10:20am 27.3 19.7 5.6 25 11.2 N 35 56 19 30 1003.2 1003.2 0.0
31/10:00am 25.9 18.4 6.5 29 10.1 N 35 52 19 28 1003.6 1003.6 0.0
31/09:30am 24.6 17.9 7.3 33 9.1 N 32 41 17 22 1004.1 1004.1 0.0
31/09:00am 22.2 17.2 9.7 45 6.8 N 26 37 14 20 1004.6 1004.6 0.0
31/08:30am 18.4 13.6 8.9 54 5.0 NNE 24 33 13 18 1005.0 1005.0 0.0
31/08:00am 18.1 13.1 9.5 57 4.5 N 26 33 14 18 1005.6 1005.6 0.0
31/07:30am 15.0 12.0 9.1 68 3.0 NNE 15 28 8 15 1005.8 1005.8 0.0
31/07:00am 13.6 10.6 9.3 75 2.2 N 15 22 8 12 1006.2 1006.2 0.0
31/06:30am 11.6 10.0 8.6 82 1.5 N 7 13 4 7 1005.9 1005.9 0.0
31/06:00am 12.3 8.9 9.1 81 1.6 NNE 17 22 9 12 1005.8 1005.8 0.0
31/05:30am 11.9 8.5 9.3 84 1.3 NNE 17 26 9 14 1006.3 1006.3 0.0
31/05:00am 11.4 9.9 9.3 87 1.1 NE 7 11 4 6 1007.0 1007.0 0.0
31/04:30am 11.2 8.9 9.1 87 1.0 NE 11 17 6 9 1007.3 1007.3 0.0
31/04:00am 11.5 9.6 9.2 86 1.2 NE 9 11 5 6 1007.9 1007.9 0.0
31/03:30am 11.2 8.1 8.9 86 1.1 ENE 15 20 8 11 1008.0 1008.0 0.0
31/03:00am 11.4 8.4 9.1 86 1.2 NE 15 22 8 12 1008.8 1008.8 0.0
31/02:30am 10.8 8.5 9.1 89 0.8 NE 11 15 6 8 1009.3 1009.3 0.0
31/02:00am 10.5 8.5 8.8 89 0.8 ENE 9 13 5 7 1010.2 1010.2 0.0
31/01:30am 9.9 8.3 8.8 93 0.5 ENE 7 11 4 6 1010.5 1010.5 0.0
31/01:00am 8.9 7.1 8.1 95 0.4 ENE 7 11 4 6 1011.3 1011.3 0.0
31/12:30am 7.8 5.4 6.9 94 0.4 NE 9 9 5 5 1012.0 1012.0 0.0
31/12:00am 6.8 4.7 5.6 92 0.5 NE 6 7 3 4 1012.4 1012.4 0.0
 
Date/Time
CDT
Temp
°C
App
Temp
°C
Dew
Point
Rel
Hum
%
Delta-T
°C
Wind Press
QNH
hPa
Press
MSL
hPa
Rain
since 9 am
mm
Dir
 
Spd
km/h
Gust
km/h
Spd
kts
Gust
kts
30/11:30pm 8.2 7.5 7.0 92 0.6 CALM 0 0 0 0 1012.5 1012.5 0.0
30/11:00pm 8.4 7.8 7.2 92 0.6 CALM 0 0 0 0 1012.8 1012.8 0.0
30/10:30pm 8.1 6.8 5.9 86 1.0 S 2 6 1 3 1013.3 1013.3 0.0
30/10:00pm 9.1 8.5 7.2 88 0.9 CALM 0 6 0 3 1013.5 1013.5 0.0
30/09:30pm 9.5 8.8 7.1 85 1.1 CALM 0 0 0 0 1013.6 1013.6 0.0
30/09:00pm 10.7 10.2 7.9 83 1.4 CALM 0 2 0 1 1013.7 1013.7 0.0
30/08:30pm 11.2 9.9 7.7 79 1.7 SSW 4 6 2 3 1013.6 1013.6 0.0
30/08:00pm 12.5 10.9 8.2 75 2.1 SSW 6 6 3 3 1013.8 1013.8 0.0
30/07:30pm 14.1 12.7 8.9 71 2.6 SW 6 9 3 5 1013.5 1013.5 0.0
30/07:00pm 15.4 13.5 9.1 66 3.2 SW 9 13 5 7 1013.3 1013.3 0.0
30/06:30pm 16.1 14.0 9.8 66 3.3 NW 11 15 6 8 1013.5 1013.5 0.0
30/06:00pm 16.4 14.2 9.3 63 3.7 NW 11 17 6 9 1013.2 1013.2 0.0
30/05:30pm 16.8 14.2 9.5 62 3.8 NW 13 17 7 9 1013.5 1013.5 0.0
30/05:00pm 16.8 13.8 9.2 61 3.9 NW 15 19 8 10 1013.6 1013.6 0.0
30/04:30pm 17.1 14.5 9.3 60 4.1 NW 13 20 7 11 1013.8 1013.8 0.0
30/04:00pm 17.7 15.5 9.3 58 4.4 WNW 11 20 6 11 1014.1 1014.1 0.0
30/03:30pm 17.6 14.9 9.0 57 4.5 NW 13 20 7 11 1014.3 1014.3 0.0
30/03:00pm 17.2 14.4 8.6 57 4.4 W 13 22 7 12 1014.7 1014.7 0.0
30/02:30pm 17.9 14.5 9.0 56 4.6 W 17 26 9 14 1015.1 1015.1 0.0
30/02:00pm 18.1 15.1 9.2 56 4.6 WNW 15 28 8 15 1015.5 1015.5 0.0
30/01:30pm 17.3 13.7 8.4 56 4.5 NW 17 24 9 13 1015.4 1015.4 0.0
30/01:00pm 17.4 13.9 8.8 57 4.4 NNW 17 24 9 13 1015.5 1015.5 0.0
30/12:30pm 17.3 14.3 9.2 59 4.2 NW 15 20 8 11 1015.9 1015.9 0.0
30/12:00pm 16.6 13.7 9.5 63 3.7 NW 15 20 8 11 1016.1 1016.1 0.0
30/11:30am 16.6 14.6 10.0 65 3.5 NW 11 17 6 9 1016.4 1016.4 0.0
30/11:00am 16.2 14.8 9.4 64 3.5 W 7 15 4 8 1016.5 1016.5 0.0
30/10:30am 15.6 13.8 9.3 66 3.2 W 9 11 5 6 1016.7 1016.7 0.0
30/10:00am 15.5 13.5 8.7 64 3.5 W 9 17 5 9 1016.7 1016.7 0.0
30/09:30am 15.2 13.3 8.9 66 3.2 W 9 15 5 8 1016.7 1016.7 0.0
30/09:00am 15.4 12.7 9.1 66 3.2 WSW 13 20 7 11 1016.7 1016.7 0.4
30/08:30am 14.9 12.5 8.8 67 3.1 WSW 11 17 6 9 1016.3 1016.3 0.4
30/08:00am 14.6 12.4 9.2 70 2.8 W 11 19 6 10 1016.3 1016.3 0.4
30/07:30am 14.2 12.7 9.2 72 2.5 W 7 13 4 7 1015.9 1015.9 0.4
30/07:00am 13.7 13.0 9.9 78 2.0 W 4 6 2 3 1015.6 1015.6 0.4
30/06:30am 13.4 13.1 10.2 81 1.7 W 2 4 1 2 1015.7 1015.7 0.4
30/06:00am 13.2 12.3 9.3 77 2.0 W 4 7 2 4 1015.5 1015.5 0.4
30/05:30am 13.0 12.4 10.5 85 1.3 W 4 6 2 3 1015.4 1015.4 0.4
30/05:00am 12.8 11.7 10.0 83 1.4 W 6 7 3 4 1015.2 1015.2 0.4
30/04:30am 12.7 11.5 9.5 81 1.6 W 6 7 3 4 1015.0 1015.0 0.4
30/04:00am 11.8 11.0 9.5 86 1.2 WNW 4 6 2 3 1014.9 1014.9 0.4
30/03:30am 12.3 11.4 10.5 89 0.9 W 6 9 3 5 1015.4 1015.4 0.4
30/03:00am 10.0 9.2 9.5 97 0.2 W 4 7 2 4 1015.7 1015.7 0.4
30/02:30am 9.0 8.7 8.6 97 0.2 CALM 0 0 0 0 1015.7 1015.7 0.4
30/02:00am 7.5 6.8 6.9 96 0.3 CALM 0 0 0 0 1015.8 1015.8 0.4
30/01:30am 6.0 4.9 5.3 95 0.3 CALM 0 0 0 0 1015.9 1015.9 0.4
30/01:00am 6.5 5.5 5.6 94 0.4 CALM 0 0 0 0 1016.2 1016.2 0.4
30/12:30am 7.7 6.9 6.6 93 0.5 CALM 0 0 0 0 1016.6 1016.6 0.4
30/12:00am 9.3 8.9 8.2 93 0.5 CALM 0 0 0 0 1016.8 1016.8 0.4
 
Date/Time
CDT
Temp
°C
App
Temp
°C
Dew
Point
Rel
Hum
%
Delta-T
°C
Wind Press
QNH
hPa
Press
MSL
hPa
Rain
since 9 am
mm
Dir
 
Spd
km/h
Gust
km/h
Spd
kts
Gust
kts
29/11:30pm 8.7 8.1 7.5 92 0.6 CALM 0 0 0 0 1016.9 1016.9 0.4
29/11:00pm 9.2 7.7 7.0 86 1.0 SSW 4 6 2 3 1017.1 1017.1 0.4
29/10:30pm 11.3 10.7 8.9 85 1.2 SSW 2 4 1 2 1017.2 1017.2 0.4
29/10:00pm 12.6 11.5 10.0 84 1.3 WSW 6 9 3 5 1017.6 1017.6 0.4
29/09:30pm 12.9 11.1 10.8 87 1.1 SW 11 15 6 8 1017.5 1017.5 0.4
29/09:00pm 13.0 11.5 10.4 84 1.3 SW 9 13 5 7 1017.4 1017.4 0.4
29/08:30pm 13.1 11.4 9.7 80 1.7 SW 9 13 5 7 1017.2 1017.2 0.4
29/08:00pm 13.7 12.1 10.1 79 1.9 SW 9 13 5 7 1017.1 1017.1 0.4
29/07:30pm 14.0 12.3 9.8 76 2.2 SW 9 15 5 8 1017.3 1017.3 0.4
29/07:00pm 14.4 12.5 10.6 78 2.0 SW 11 15 6 8 1017.2 1017.2 0.4
29/06:30pm 14.9 13.3 11.5 80 1.8 W 11 17 6 9 1017.3 1017.3 0.4
29/06:00pm 14.8 13.4 12.1 84 1.5 W 11 19 6 10 1017.4 1017.4 0.4

Other Formats:

Comma delimited format used in spreadsheet applications
http://www.bom.gov.au/fwo/IDS60801/IDS60801.95816.axf

JavaScript Object Notation format (JSON) in row-major order
http://www.bom.gov.au/fwo/IDS60801/IDS60801.95816.json